createdAt,value
2022-09-04T00:00:20.775Z,16.79
2022-09-04T00:02:55.483Z,16.82
2022-09-04T00:05:29.953Z,16.80
2022-09-04T00:08:11.732Z,16.89
2022-09-04T00:11:09.344Z,16.90
2022-09-04T00:13:43.423Z,16.83
2022-09-04T00:16:12.428Z,16.80
2022-09-04T00:19:04.749Z,16.81
2022-09-04T00:21:41.104Z,16.83
2022-09-04T00:24:15.708Z,16.91
2022-09-04T00:27:21.356Z,16.87
2022-09-04T00:30:04.784Z,16.93
2022-09-04T00:32:40.501Z,16.85
2022-09-04T00:35:15.196Z,16.78
2022-09-04T00:38:04.985Z,16.85
2022-09-04T00:41:01.798Z,16.83
2022-09-04T00:43:59.257Z,16.73
2022-09-04T00:46:47.815Z,16.69
2022-09-04T00:49:17.349Z,16.63
2022-09-04T00:52:01.391Z,16.79
2022-09-04T00:54:55.943Z,16.61
2022-09-04T00:57:49.640Z,16.60
2022-09-04T01:00:19.812Z,16.73
2022-09-04T01:03:07.791Z,16.58
2022-09-04T01:05:37.531Z,16.45
2022-09-04T01:08:14.563Z,16.42
2022-09-04T01:11:10.913Z,16.39
2022-09-04T01:13:43.376Z,16.42
2022-09-04T01:16:14.183Z,16.31
2022-09-04T01:19:02.119Z,16.19
2022-09-04T01:21:48.018Z,16.13
2022-09-04T01:24:36.795Z,16.17
2022-09-04T01:27:09.934Z,16.24
2022-09-04T01:30:05.572Z,16.24
2022-09-04T01:33:12.849Z,16.07
2022-09-04T01:36:03.342Z,16.21
2022-09-04T01:38:53.287Z,16.07
2022-09-04T01:41:38.381Z,16.02
2022-09-04T01:44:08.598Z,15.97
2022-09-04T01:46:54.568Z,15.84
2022-09-04T01:49:31.347Z,15.85
2022-09-04T01:52:10.102Z,15.83
2022-09-04T01:54:52.832Z,15.79
2022-09-04T01:57:31.148Z,15.74
2022-09-04T02:00:17.773Z,15.67
2022-09-04T02:03:03.042Z,15.60
2022-09-04T02:05:39.358Z,15.56
2022-09-04T02:08:33.570Z,15.46
2022-09-04T02:11:14.569Z,15.49
2022-09-04T02:14:04.529Z,15.43
2022-09-04T02:16:45.643Z,15.43
2022-09-04T02:19:53.873Z,15.44
2022-09-04T02:22:29.713Z,15.36
2022-09-04T02:25:18.297Z,15.27
2022-09-04T02:27:52.349Z,15.23
2022-09-04T02:30:20.830Z,15.31
2022-09-04T02:33:09.842Z,15.20
2022-09-04T02:35:47.586Z,15.15
2022-09-04T02:38:40.186Z,15.09
2022-09-04T02:41:26.709Z,15.04
2022-09-04T02:43:57.628Z,14.98
2022-09-04T02:46:43.465Z,15.01
2022-09-04T02:49:24.974Z,14.98
2022-09-04T02:52:08.926Z,15.04
2022-09-04T02:55:03.985Z,15.12
2022-09-04T02:57:55.132Z,15.13
2022-09-04T03:00:39.421Z,15.08
2022-09-04T03:03:18.727Z,15.06
2022-09-04T03:06:05.019Z,15.02
2022-09-04T03:08:37.820Z,15.08
2022-09-04T03:11:14.390Z,15.06
2022-09-04T03:13:59.273Z,15.11
2022-09-04T03:16:56.231Z,15.21
2022-09-04T03:19:45.322Z,15.20
2022-09-04T03:22:21.884Z,15.18
2022-09-04T03:25:07.497Z,15.18
2022-09-04T03:27:35.034Z,15.19
2022-09-04T03:30:04.810Z,15.19
2022-09-04T03:32:51.976Z,15.18
2022-09-04T03:35:29.638Z,15.19
2022-09-04T03:38:16.416Z,15.23
2022-09-04T03:41:06.292Z,15.23
2022-09-04T03:44:16.060Z,15.30
2022-09-04T03:46:58.799Z,15.38
2022-09-04T03:49:26.434Z,15.36
2022-09-04T03:51:53.397Z,15.32
2022-09-04T03:54:56.915Z,15.35
2022-09-04T03:57:36.411Z,15.36
2022-09-04T04:00:19.871Z,15.39
2022-09-04T04:03:31.337Z,15.43
2022-09-04T04:06:16.717Z,15.40
2022-09-04T04:08:58.690Z,15.35
2022-09-04T04:11:47.332Z,15.27
2022-09-04T04:14:42.377Z,15.30
2022-09-04T04:17:36.860Z,15.33
2022-09-04T04:20:05.369Z,15.35
2022-09-04T04:22:56.540Z,15.35
2022-09-04T04:25:26.115Z,15.26
2022-09-04T04:28:20.012Z,15.22
2022-09-04T04:30:52.525Z,15.24
2022-09-04T04:33:24.221Z,15.30
2022-09-04T04:36:13.147Z,15.26
2022-09-04T04:38:47.682Z,15.26
2022-09-04T04:41:53.231Z,15.26
2022-09-04T04:45:00.639Z,15.28
2022-09-04T04:47:55.003Z,15.24
2022-09-04T04:50:54.147Z,15.26
2022-09-04T04:53:39.814Z,15.31
2022-09-04T04:56:15.427Z,15.39
2022-09-04T04:59:06.841Z,15.32
2022-09-04T05:01:56.379Z,15.35
2022-09-04T05:04:42.578Z,15.33
2022-09-04T05:07:34.669Z,15.38
2022-09-04T05:10:11.222Z,15.44
2022-09-04T05:13:06.089Z,15.41
2022-09-04T05:16:07.360Z,15.57
2022-09-04T05:18:40.068Z,15.50
2022-09-04T05:21:24.687Z,15.59
2022-09-04T05:24:00.560Z,15.61
2022-09-04T05:26:38.239Z,15.64
2022-09-04T05:29:04.855Z,15.71
2022-09-04T05:31:54.666Z,15.82
2022-09-04T05:34:47.939Z,15.92
2022-09-04T05:37:39.092Z,16.13
2022-09-04T05:40:24.250Z,16.13
2022-09-04T05:43:23.353Z,16.02
2022-09-04T05:46:16.369Z,16.28
2022-09-04T05:49:05.385Z,16.32
2022-09-04T05:52:09.168Z,16.38
2022-09-04T05:54:57.893Z,16.44
2022-09-04T05:57:24.876Z,16.36
2022-09-04T05:59:59.493Z,16.60
2022-09-04T06:03:03.870Z,16.57
2022-09-04T06:06:11.215Z,16.72
2022-09-04T06:08:40.960Z,16.83
2022-09-04T06:11:27.856Z,17.10
2022-09-04T06:14:06.713Z,18.08
2022-09-04T06:16:43.720Z,19.15
2022-09-04T06:19:23.769Z,19.46
2022-09-04T06:22:08.721Z,20.00
2022-09-04T06:25:14.922Z,19.64
2022-09-04T06:28:14.362Z,20.25
2022-09-04T06:31:18.166Z,20.09
2022-09-04T06:34:10.059Z,19.98
2022-09-04T06:37:16.173Z,21.40
2022-09-04T06:39:57.327Z,20.52
2022-09-04T06:42:55.120Z,21.04
2022-09-04T06:45:48.767Z,21.19
2022-09-04T06:48:15.356Z,21.78
2022-09-04T06:50:44.965Z,20.94
2022-09-04T06:53:26.965Z,19.80
2022-09-04T06:56:07.076Z,19.38
2022-09-04T06:59:04.536Z,19.00
2022-09-04T07:02:01.892Z,18.45
2022-09-04T07:05:10.181Z,18.57
2022-09-04T07:07:52.567Z,18.33
2022-09-04T07:10:33.256Z,18.58
2022-09-04T07:13:17.599Z,18.65
2022-09-04T07:16:02.619Z,18.65
2022-09-04T07:18:38.411Z,18.88
2022-09-04T07:21:16.492Z,18.95
2022-09-04T07:24:19.405Z,18.98
2022-09-04T07:26:56.745Z,19.26
2022-09-04T07:29:50.392Z,19.50
2022-09-04T07:32:29.973Z,19.71
2022-09-04T07:35:04.947Z,19.85
2022-09-04T07:37:58.470Z,20.11
2022-09-04T07:40:34.138Z,19.73
2022-09-04T07:43:33.042Z,19.68
2022-09-04T07:46:30.842Z,19.96
2022-09-04T07:49:09.577Z,20.28
2022-09-04T07:51:58.001Z,20.38
2022-09-04T07:58:12.935Z,20.23
2022-09-04T08:01:09.313Z,19.90
2022-09-04T08:03:54.005Z,19.97
2022-09-04T08:06:37.678Z,20.24
2022-09-04T08:09:45.828Z,20.36
2022-09-04T08:12:15.384Z,20.32
2022-09-04T08:15:10.220Z,20.38
2022-09-04T08:17:52.875Z,20.20
2022-09-04T08:20:40.384Z,20.41
2022-09-04T08:23:46.235Z,19.96
2022-09-04T08:27:00.782Z,19.90
2022-09-04T08:30:05.659Z,20.09
2022-09-04T08:32:57.556Z,20.65
2022-09-04T08:35:33.653Z,20.52
2022-09-04T08:38:14.343Z,20.51
2022-09-04T08:40:53.815Z,20.77
2022-09-04T08:43:44.288Z,20.83
2022-09-04T08:46:20.473Z,21.01
2022-09-04T08:49:29.219Z,21.20
2022-09-04T08:52:32.649Z,21.20
2022-09-04T08:55:25.143Z,21.51
2022-09-04T08:58:25.993Z,21.80
2022-09-04T09:01:03.371Z,21.53
2022-09-04T09:03:48.945Z,21.80
2022-09-04T09:06:37.392Z,21.97
2022-09-04T09:09:34.320Z,22.17
2022-09-04T09:12:09.056Z,22.15
2022-09-04T09:14:57.122Z,22.10
2022-09-04T09:17:38.487Z,22.35
2022-09-04T09:20:24.370Z,22.37
2022-09-04T09:23:19.481Z,22.53
2022-09-04T09:26:23.626Z,22.72
2022-09-04T09:29:09.073Z,22.80
2022-09-04T09:32:01.721Z,22.95
2022-09-04T09:34:58.590Z,22.76
2022-09-04T09:37:36.979Z,22.62
2022-09-04T09:40:26.988Z,22.50
2022-09-04T09:43:15.179Z,22.93
2022-09-04T09:46:08.080Z,23.08
2022-09-04T09:48:50.373Z,22.99
2022-09-04T09:51:38.807Z,23.06
2022-09-04T09:54:37.799Z,22.98
2022-09-04T09:57:49.565Z,23.28
2022-09-04T10:00:23.911Z,23.47
2022-09-04T10:03:09.688Z,23.41
2022-09-04T10:05:55.377Z,23.65
2022-09-04T10:08:37.300Z,23.60
2022-09-04T10:11:23.777Z,23.42
2022-09-04T10:14:12.170Z,23.18
2022-09-04T10:17:25.477Z,23.79
2022-09-04T10:20:25.400Z,23.84
2022-09-04T10:23:14.671Z,24.05
2022-09-04T10:26:31.894Z,23.64
2022-09-04T10:29:30.340Z,23.82
2022-09-04T10:32:34.189Z,23.75
2022-09-04T10:35:13.218Z,24.00
2022-09-04T10:38:01.592Z,23.80
2022-09-04T10:40:43.999Z,23.84
2022-09-04T10:43:46.143Z,24.20
2022-09-04T10:46:26.249Z,24.58
2022-09-04T10:49:20.934Z,24.37
2022-09-04T10:52:04.994Z,24.40
2022-09-04T10:55:30.467Z,24.21
2022-09-04T10:58:22.241Z,24.18
2022-09-04T11:01:17.293Z,24.08
2022-09-04T11:04:13.924Z,23.76
2022-09-04T11:07:09.437Z,24.00
2022-09-04T11:09:57.395Z,24.28
2022-09-04T11:12:54.219Z,24.19
2022-09-04T11:15:58.801Z,24.31
2022-09-04T11:18:49.270Z,24.00
2022-09-04T11:21:52.286Z,24.36
2022-09-04T11:25:00.023Z,24.52
2022-09-04T11:27:58.634Z,24.39
2022-09-04T11:30:48.129Z,24.26
2022-09-04T11:36:29.735Z,24.33
2022-09-04T11:39:42.451Z,24.55
2022-09-04T11:42:12.159Z,24.68
2022-09-04T11:44:52.276Z,24.48
2022-09-04T11:47:28.438Z,24.10
2022-09-04T11:50:08.729Z,24.28
2022-09-04T11:52:50.710Z,24.53
2022-09-04T11:55:52.063Z,24.67
2022-09-04T11:58:28.429Z,24.05
2022-09-04T12:01:18.036Z,24.11
2022-09-04T12:03:59.892Z,24.04
2022-09-04T12:06:51.121Z,24.17
2022-09-04T12:09:46.070Z,24.24
2022-09-04T12:12:16.542Z,24.28
2022-09-04T12:15:14.349Z,24.42
2022-09-04T12:18:08.920Z,24.39
2022-09-04T12:20:42.670Z,24.35
2022-09-04T12:23:43.468Z,24.54
2022-09-04T12:26:18.111Z,24.39
2022-09-04T12:29:17.256Z,24.54
2022-09-04T12:32:07.196Z,24.61
2022-09-04T12:34:43.197Z,25.01
2022-09-04T12:37:19.970Z,24.89
2022-09-04T12:40:01.836Z,25.09
2022-09-04T12:42:30.879Z,24.65
2022-09-04T12:45:09.008Z,24.51
2022-09-04T12:47:47.749Z,24.52
2022-09-04T12:50:17.400Z,24.51
2022-09-04T12:53:11.746Z,24.27
2022-09-04T12:56:00.636Z,24.16
2022-09-04T12:58:39.910Z,24.44
2022-09-04T13:01:22.269Z,24.37
2022-09-04T13:04:14.685Z,24.84
2022-09-04T13:06:54.148Z,24.83
2022-09-04T13:09:54.794Z,24.97
2022-09-04T13:12:45.521Z,24.58
2022-09-04T13:15:37.241Z,24.53
2022-09-04T13:18:21.965Z,24.62
2022-09-04T13:21:20.159Z,25.01
2022-09-04T13:24:09.276Z,24.74
2022-09-04T13:26:45.040Z,24.47
2022-09-04T13:29:40.256Z,24.61
2022-09-04T13:32:19.240Z,24.54
2022-09-04T13:35:04.271Z,24.50
2022-09-04T13:37:56.342Z,24.41
2022-09-04T13:40:38.277Z,24.46
2022-09-04T13:43:30.563Z,24.35
2022-09-04T13:46:03.787Z,24.25
2022-09-04T13:48:44.784Z,24.24
2022-09-04T13:51:32.990Z,24.28
2022-09-04T13:54:21.832Z,24.40
2022-09-04T13:57:08.289Z,24.44
2022-09-04T13:59:35.714Z,24.43
2022-09-04T14:02:08.895Z,24.50
2022-09-04T14:04:46.210Z,24.52
2022-09-04T14:07:21.438Z,23.95
2022-09-04T14:09:50.641Z,23.89
2022-09-04T14:12:29.469Z,23.94
2022-09-04T14:15:08.280Z,24.24
2022-09-04T14:18:03.072Z,24.14
2022-09-04T14:20:51.547Z,23.98
2022-09-04T14:23:37.457Z,24.28
2022-09-04T14:26:13.230Z,24.30
2022-09-04T14:29:04.138Z,24.28
2022-09-04T14:32:18.706Z,23.81
2022-09-04T14:35:10.386Z,23.83
2022-09-04T14:38:00.157Z,24.00
2022-09-04T14:40:37.064Z,23.93
2022-09-04T14:43:17.011Z,23.74
2022-09-04T14:46:12.177Z,23.68
2022-09-04T14:48:51.137Z,23.64
2022-09-04T14:51:31.611Z,23.60
2022-09-04T14:54:01.995Z,23.46
2022-09-04T14:56:42.991Z,23.42
2022-09-04T14:59:28.472Z,23.35
2022-09-04T15:01:58.317Z,23.35
2022-09-04T15:04:46.187Z,23.31
2022-09-04T15:07:35.246Z,23.28
2022-09-04T15:10:24.508Z,23.28
2022-09-04T15:13:16.307Z,23.25
2022-09-04T15:15:47.835Z,23.02
2022-09-04T15:18:23.608Z,22.77
2022-09-04T15:21:21.384Z,22.79
2022-09-04T15:24:14.094Z,22.81
2022-09-04T15:26:50.626Z,22.56
2022-09-04T15:29:38.186Z,22.52
2022-09-04T15:32:14.193Z,22.50
2022-09-04T15:34:41.450Z,22.39
2022-09-04T15:37:27.441Z,22.72
2022-09-04T15:40:22.457Z,22.48
2022-09-04T15:43:10.302Z,22.57
2022-09-04T15:45:57.411Z,22.49
2022-09-04T15:48:36.188Z,22.45
2022-09-04T15:51:40.707Z,22.33
2022-09-04T15:54:10.482Z,22.32
2022-09-04T15:56:45.501Z,22.40
2022-09-04T15:59:30.335Z,22.27
2022-09-04T16:02:11.669Z,22.23
2022-09-04T16:04:46.459Z,22.13
2022-09-04T16:07:19.663Z,22.20
2022-09-04T16:09:54.297Z,22.17
2022-09-04T16:12:30.768Z,22.11
2022-09-04T16:15:32.743Z,21.94
2022-09-04T16:18:09.072Z,22.04
2022-09-04T16:20:52.892Z,21.89
2022-09-04T16:23:36.389Z,21.95
2022-09-04T16:26:14.436Z,21.98
2022-09-04T16:28:55.951Z,21.93
2022-09-04T16:31:32.148Z,21.87
2022-09-04T16:34:08.084Z,21.74
2022-09-04T16:36:45.893Z,21.68
2022-09-04T16:39:49.501Z,21.60
2022-09-04T16:42:40.417Z,21.71
2022-09-04T16:45:14.221Z,21.43
2022-09-04T16:48:33.406Z,21.39
2022-09-04T16:51:37.259Z,21.25
2022-09-04T16:54:17.439Z,21.19
2022-09-04T16:56:53.409Z,21.25
2022-09-04T17:00:13.599Z,21.23
2022-09-04T17:02:51.163Z,21.19
2022-09-04T17:05:45.810Z,21.05
2022-09-04T17:08:27.907Z,21.08
2022-09-04T17:11:22.149Z,20.95
2022-09-04T17:13:55.453Z,21.02
2022-09-04T17:16:37.107Z,20.94
2022-09-04T17:19:04.548Z,20.86
2022-09-04T17:28:54.805Z,20.81
2022-09-04T17:29:00.787Z,20.97
2022-09-04T17:29:20.864Z,20.75
2022-09-04T17:31:15.715Z,20.66
2022-09-04T17:40:33.847Z,20.61
2022-09-04T17:40:40.545Z,20.51
2022-09-04T17:40:54.605Z,20.54
2022-09-04T17:43:21.481Z,20.42
2022-09-04T17:46:13.106Z,20.47
2022-09-04T17:48:44.201Z,20.38
2022-09-04T17:51:28.962Z,20.24
2022-09-04T17:54:00.141Z,20.17
2022-09-04T17:56:36.975Z,20.24
2022-09-04T17:59:13.888Z,20.03
2022-09-04T18:02:25.464Z,19.97
2022-09-04T18:05:08.482Z,19.89
2022-09-04T18:08:07.631Z,19.94
2022-09-04T18:10:45.959Z,19.96
2022-09-04T18:13:36.433Z,19.86
2022-09-04T18:16:28.509Z,19.76
2022-09-04T18:19:14.236Z,19.85
2022-09-04T18:22:26.660Z,19.66
2022-09-04T18:24:50.741Z,19.62
2022-09-04T18:27:32.674Z,19.50
2022-09-04T18:34:09.976Z,19.59
2022-09-04T18:37:16.619Z,19.47
2022-09-04T18:37:20.114Z,19.42
2022-09-04T18:39:11.196Z,19.40
2022-09-04T18:47:43.369Z,19.37
2022-09-04T18:50:37.751Z,19.37
2022-09-04T18:50:44.669Z,19.40
2022-09-04T18:51:30.755Z,19.37
2022-09-04T18:54:22.577Z,19.27
2022-09-04T18:56:55.486Z,19.26
2022-09-04T18:59:32.759Z,19.17
2022-09-04T19:02:13.390Z,19.33
2022-09-04T19:04:51.654Z,19.38
2022-09-04T19:07:34.387Z,19.16
2022-09-04T19:10:07.020Z,19.35
2022-09-04T19:12:47.253Z,19.17
2022-09-04T19:15:45.976Z,19.12
2022-09-04T19:18:22.247Z,19.10
2022-09-04T19:21:09.930Z,19.08
2022-09-04T19:23:51.069Z,19.09
2022-09-04T19:26:29.454Z,19.06
2022-09-04T19:29:05.804Z,18.97
2022-09-04T19:32:04.861Z,19.05
2022-09-04T19:34:42.920Z,18.94
2022-09-04T19:38:32.111Z,18.96
2022-09-04T19:46:05.762Z,19.06
2022-09-04T19:46:19.602Z,19.10
2022-09-04T19:46:42.999Z,18.97
2022-09-04T19:52:50.046Z,18.92
2022-09-04T19:53:36.584Z,19.03
2022-09-04T19:55:23.471Z,18.93
2022-09-04T19:58:11.656Z,19.01
2022-09-04T20:00:54.951Z,18.78
2022-09-04T20:03:33.462Z,18.86
2022-09-04T20:06:20.755Z,18.66
2022-09-04T20:09:18.224Z,18.75
2022-09-04T20:11:53.660Z,18.81
2022-09-04T20:14:28.820Z,18.74
2022-09-04T20:17:09.843Z,18.74
2022-09-04T20:19:45.105Z,18.63
2022-09-04T20:22:56.638Z,18.61
2022-09-04T20:25:26.277Z,18.60
2022-09-04T20:28:11.043Z,18.53
2022-09-04T20:30:41.275Z,18.63
2022-09-04T20:33:19.909Z,18.51
2022-09-04T20:36:13.410Z,18.47
2022-09-04T20:39:02.641Z,18.42
2022-09-04T20:41:45.121Z,18.49
2022-09-04T20:44:17.962Z,18.42
2022-09-04T20:52:42.609Z,18.46
2022-09-04T20:52:51.803Z,18.49
2022-09-04T20:53:22.130Z,18.43
2022-09-04T20:56:01.939Z,18.32
2022-09-04T21:03:05.347Z,18.29
2022-09-04T21:03:21.625Z,18.32
2022-09-04T21:04:43.620Z,18.44
2022-09-04T21:07:31.135Z,18.34
2022-09-04T21:10:10.307Z,18.35
2022-09-04T21:13:24.835Z,18.19
2022-09-04T21:16:13.023Z,18.25
2022-09-04T21:19:12.912Z,18.24
2022-09-04T21:22:32.150Z,18.29
2022-09-04T21:25:29.920Z,18.15
2022-09-04T21:28:21.045Z,18.04
2022-09-04T21:30:47.721Z,18.19
2022-09-04T21:33:27.738Z,18.13
2022-09-04T21:36:26.179Z,18.10
2022-09-04T21:38:59.965Z,18.07
2022-09-04T21:41:32.725Z,17.91
2022-09-04T21:44:27.622Z,18.02
2022-09-04T21:47:08.417Z,17.92
2022-09-04T21:49:55.589Z,17.95
2022-09-04T21:52:55.858Z,18.00
2022-09-04T22:02:22.972Z,17.89
2022-09-04T22:02:40.982Z,17.87
2022-09-04T22:02:41.533Z,17.82
2022-09-04T22:04:44.350Z,17.89
2022-09-04T22:12:14.852Z,17.89
2022-09-04T22:13:34.893Z,17.81
2022-09-04T22:13:49.299Z,17.79
2022-09-04T22:16:29.353Z,17.69
2022-09-04T22:19:02.514Z,17.64
2022-09-04T22:22:08.124Z,17.58
2022-09-04T22:24:57.279Z,17.72
2022-09-04T22:28:07.647Z,17.70
2022-09-04T22:31:01.120Z,17.55
2022-09-04T22:33:48.456Z,17.50
2022-09-04T22:37:02.650Z,17.70
2022-09-04T22:39:44.439Z,17.63
2022-09-04T22:42:40.907Z,17.54
2022-09-04T22:45:38.976Z,17.52
2022-09-04T22:48:08.717Z,17.46
2022-09-04T22:50:56.657Z,17.46
2022-09-04T22:54:02.068Z,17.47
2022-09-04T22:56:55.340Z,17.53
2022-09-04T22:59:30.666Z,17.56
2022-09-04T23:02:13.731Z,17.59
2022-09-04T23:04:53.246Z,17.52
2022-09-04T23:13:41.955Z,17.51
2022-09-04T23:13:58.765Z,17.37
2022-09-04T23:14:07.459Z,17.52
2022-09-04T23:16:44.489Z,17.35
2022-09-04T23:26:35.755Z,17.44
2022-09-04T23:26:42.066Z,17.43
2022-09-04T23:26:58.482Z,17.26
2022-09-04T23:29:22.134Z,17.22
2022-09-04T23:32:22.153Z,17.19
2022-09-04T23:35:22.029Z,17.21
2022-09-04T23:38:07.113Z,17.33
2022-09-04T23:40:39.737Z,17.27
2022-09-04T23:43:37.261Z,17.28
2022-09-04T23:46:30.408Z,17.29
2022-09-04T23:49:06.924Z,17.17
2022-09-04T23:51:58.720Z,17.23
2022-09-04T23:54:53.480Z,17.18
2022-09-04T23:57:48.482Z,17.13
